sensor_id;sensor_type;location;lat;lon;timestamp;P1;durP1;ratioP1;P2;durP2;ratioP2
7817;SDS011;3954;52.624;9.212;2022-10-16T00:01:29;1.30;;;1.20;;
7817;SDS011;3954;52.624;9.212;2022-10-16T00:03:57;1.40;;;1.27;;
7817;SDS011;3954;52.624;9.212;2022-10-16T00:06:23;1.50;;;1.20;;
7817;SDS011;3954;52.624;9.212;2022-10-16T00:08:51;2.73;;;1.40;;
7817;SDS011;3954;52.624;9.212;2022-10-16T00:11:17;2.77;;;1.40;;
7817;SDS011;3954;52.624;9.212;2022-10-16T00:13:44;1.60;;;1.40;;
7817;SDS011;3954;52.624;9.212;2022-10-16T00:16:11;2.97;;;1.47;;
7817;SDS011;3954;52.624;9.212;2022-10-16T00:18:38;2.60;;;1.13;;
7817;SDS011;3954;52.624;9.212;2022-10-16T00:21:06;1.30;;;1.20;;
7817;SDS011;3954;52.624;9.212;2022-10-16T00:23:32;1.50;;;1.40;;
7817;SDS011;3954;52.624;9.212;2022-10-16T00:25:59;2.13;;;1.30;;
7817;SDS011;3954;52.624;9.212;2022-10-16T00:28:26;3.30;;;1.40;;
7817;SDS011;3954;52.624;9.212;2022-10-16T00:30:52;2.23;;;1.30;;
7817;SDS011;3954;52.624;9.212;2022-10-16T00:33:18;2.27;;;1.40;;
7817;SDS011;3954;52.624;9.212;2022-10-16T00:35:44;1.33;;;1.20;;
7817;SDS011;3954;52.624;9.212;2022-10-16T00:38:12;1.50;;;1.40;;
7817;SDS011;3954;52.624;9.212;2022-10-16T00:40:38;1.70;;;1.60;;
7817;SDS011;3954;52.624;9.212;2022-10-16T00:43:08;1.60;;;1.30;;
7817;SDS011;3954;52.624;9.212;2022-10-16T00:45:34;1.60;;;1.50;;
7817;SDS011;3954;52.624;9.212;2022-10-16T00:48:01;2.07;;;1.63;;
7817;SDS011;3954;52.624;9.212;2022-10-16T00:50:27;1.83;;;1.53;;
7817;SDS011;3954;52.624;9.212;2022-10-16T00:52:54;2.03;;;1.60;;
7817;SDS011;3954;52.624;9.212;2022-10-16T00:55:22;2.40;;;1.83;;
7817;SDS011;3954;52.624;9.212;2022-10-16T00:57:48;3.20;;;2.10;;
7817;SDS011;3954;52.624;9.212;2022-10-16T01:00:15;4.13;;;1.80;;
7817;SDS011;3954;52.624;9.212;2022-10-16T01:02:42;2.30;;;1.93;;
7817;SDS011;3954;52.624;9.212;2022-10-16T01:05:08;2.63;;;1.90;;
7817;SDS011;3954;52.624;9.212;2022-10-16T01:07:36;6.27;;;2.17;;
7817;SDS011;3954;52.624;9.212;2022-10-16T01:10:07;3.10;;;1.90;;
7817;SDS011;3954;52.624;9.212;2022-10-16T01:12:40;2.83;;;2.40;;
7817;SDS011;3954;52.624;9.212;2022-10-16T01:15:09;3.37;;;2.20;;
7817;SDS011;3954;52.624;9.212;2022-10-16T01:17:38;2.80;;;1.90;;
7817;SDS011;3954;52.624;9.212;2022-10-16T01:20:08;4.67;;;2.30;;
7817;SDS011;3954;52.624;9.212;2022-10-16T01:22:38;3.83;;;2.30;;
7817;SDS011;3954;52.624;9.212;2022-10-16T01:25:05;4.37;;;2.77;;
7817;SDS011;3954;52.624;9.212;2022-10-16T01:27:36;4.33;;;3.13;;
7817;SDS011;3954;52.624;9.212;2022-10-16T01:30:06;3.17;;;2.80;;
7817;SDS011;3954;52.624;9.212;2022-10-16T01:32:36;4.27;;;2.67;;
7817;SDS011;3954;52.624;9.212;2022-10-16T01:35:03;2.80;;;2.60;;
7817;SDS011;3954;52.624;9.212;2022-10-16T01:37:32;3.57;;;2.97;;
7817;SDS011;3954;52.624;9.212;2022-10-16T01:40:00;3.37;;;2.83;;
7817;SDS011;3954;52.624;9.212;2022-10-16T01:42:28;3.03;;;2.67;;
7817;SDS011;3954;52.624;9.212;2022-10-16T01:44:58;4.33;;;2.90;;
7817;SDS011;3954;52.624;9.212;2022-10-16T01:47:25;3.93;;;3.20;;
7817;SDS011;3954;52.624;9.212;2022-10-16T01:49:51;4.87;;;3.00;;
7817;SDS011;3954;52.624;9.212;2022-10-16T01:52:19;6.13;;;3.37;;
7817;SDS011;3954;52.624;9.212;2022-10-16T01:54:47;4.60;;;3.77;;
7817;SDS011;3954;52.624;9.212;2022-10-16T01:57:15;6.33;;;3.90;;
7817;SDS011;3954;52.624;9.212;2022-10-16T01:59:43;5.97;;;4.17;;
7817;SDS011;3954;52.624;9.212;2022-10-16T02:02:11;3.83;;;3.43;;
7817;SDS011;3954;52.624;9.212;2022-10-16T02:04:39;5.43;;;3.80;;
7817;SDS011;3954;52.624;9.212;2022-10-16T02:07:08;4.87;;;3.63;;
7817;SDS011;3954;52.624;9.212;2022-10-16T02:09:34;4.80;;;3.90;;
7817;SDS011;3954;52.624;9.212;2022-10-16T02:12:03;7.60;;;3.70;;
7817;SDS011;3954;52.624;9.212;2022-10-16T02:14:32;3.97;;;3.57;;
7817;SDS011;3954;52.624;9.212;2022-10-16T02:16:58;4.93;;;3.67;;
7817;SDS011;3954;52.624;9.212;2022-10-16T02:19:25;5.17;;;3.93;;
7817;SDS011;3954;52.624;9.212;2022-10-16T02:21:53;4.23;;;3.73;;
7817;SDS011;3954;52.624;9.212;2022-10-16T02:24:21;4.87;;;3.70;;
7817;SDS011;3954;52.624;9.212;2022-10-16T02:26:51;4.60;;;3.90;;
7817;SDS011;3954;52.624;9.212;2022-10-16T02:29:21;5.70;;;3.67;;
7817;SDS011;3954;52.624;9.212;2022-10-16T02:31:49;5.83;;;3.70;;
7817;SDS011;3954;52.624;9.212;2022-10-16T02:34:16;4.63;;;3.67;;
7817;SDS011;3954;52.624;9.212;2022-10-16T02:36:44;5.13;;;4.30;;
7817;SDS011;3954;52.624;9.212;2022-10-16T02:39:11;7.53;;;4.60;;
7817;SDS011;3954;52.624;9.212;2022-10-16T02:41:38;6.33;;;3.97;;
7817;SDS011;3954;52.624;9.212;2022-10-16T02:44:04;5.40;;;4.40;;
7817;SDS011;3954;52.624;9.212;2022-10-16T02:46:30;6.43;;;4.37;;
7817;SDS011;3954;52.624;9.212;2022-10-16T02:48:56;6.80;;;5.23;;
7817;SDS011;3954;52.624;9.212;2022-10-16T02:51:22;4.90;;;4.30;;
7817;SDS011;3954;52.624;9.212;2022-10-16T02:53:49;7.73;;;4.73;;
7817;SDS011;3954;52.624;9.212;2022-10-16T02:56:15;6.57;;;4.60;;
7817;SDS011;3954;52.624;9.212;2022-10-16T02:58:41;5.90;;;3.90;;
7817;SDS011;3954;52.624;9.212;2022-10-16T03:01:07;7.53;;;4.73;;
7817;SDS011;3954;52.624;9.212;2022-10-16T03:03:33;8.13;;;4.67;;
7817;SDS011;3954;52.624;9.212;2022-10-16T03:05:59;6.00;;;4.87;;
7817;SDS011;3954;52.624;9.212;2022-10-16T03:08:25;10.10;;;5.33;;
7817;SDS011;3954;52.624;9.212;2022-10-16T03:10:53;7.87;;;4.87;;
7817;SDS011;3954;52.624;9.212;2022-10-16T03:13:19;8.60;;;5.00;;
7817;SDS011;3954;52.624;9.212;2022-10-16T03:15:45;6.60;;;4.10;;
7817;SDS011;3954;52.624;9.212;2022-10-16T03:18:11;7.97;;;4.50;;
7817;SDS011;3954;52.624;9.212;2022-10-16T03:20:37;8.80;;;4.83;;
7817;SDS011;3954;52.624;9.212;2022-10-16T03:23:03;5.70;;;4.23;;
7817;SDS011;3954;52.624;9.212;2022-10-16T03:25:30;4.93;;;4.30;;
7817;SDS011;3954;52.624;9.212;2022-10-16T03:27:57;6.17;;;4.70;;
7817;SDS011;3954;52.624;9.212;2022-10-16T03:30:23;6.97;;;4.53;;
7817;SDS011;3954;52.624;9.212;2022-10-16T03:32:49;5.70;;;4.53;;
7817;SDS011;3954;52.624;9.212;2022-10-16T03:35:18;5.10;;;4.30;;
7817;SDS011;3954;52.624;9.212;2022-10-16T03:37:44;7.43;;;5.13;;
7817;SDS011;3954;52.624;9.212;2022-10-16T03:40:10;7.20;;;4.70;;
7817;SDS011;3954;52.624;9.212;2022-10-16T03:42:37;5.67;;;4.80;;
7817;SDS011;3954;52.624;9.212;2022-10-16T03:45:05;6.33;;;4.43;;
7817;SDS011;3954;52.624;9.212;2022-10-16T03:47:31;5.97;;;4.73;;
7817;SDS011;3954;52.624;9.212;2022-10-16T03:49:58;5.93;;;4.77;;
7817;SDS011;3954;52.624;9.212;2022-10-16T03:52:24;5.70;;;4.90;;
7817;SDS011;3954;52.624;9.212;2022-10-16T03:54:50;8.73;;;5.13;;
7817;SDS011;3954;52.624;9.212;2022-10-16T03:57:16;4.83;;;4.20;;
7817;SDS011;3954;52.624;9.212;2022-10-16T03:59:42;5.67;;;5.00;;
7817;SDS011;3954;52.624;9.212;2022-10-16T04:02:10;5.00;;;4.47;;
7817;SDS011;3954;52.624;9.212;2022-10-16T04:04:36;6.77;;;4.80;;
7817;SDS011;3954;52.624;9.212;2022-10-16T04:07:02;5.23;;;4.57;;
7817;SDS011;3954;52.624;9.212;2022-10-16T04:09:28;5.67;;;4.30;;
7817;SDS011;3954;52.624;9.212;2022-10-16T04:11:54;7.07;;;4.53;;
7817;SDS011;3954;52.624;9.212;2022-10-16T04:14:20;6.77;;;4.80;;
7817;SDS011;3954;52.624;9.212;2022-10-16T04:16:46;7.20;;;4.77;;
7817;SDS011;3954;52.624;9.212;2022-10-16T04:19:13;8.57;;;4.80;;
7817;SDS011;3954;52.624;9.212;2022-10-16T04:21:39;6.67;;;5.07;;
7817;SDS011;3954;52.624;9.212;2022-10-16T04:24:05;6.43;;;4.73;;
7817;SDS011;3954;52.624;9.212;2022-10-16T04:26:31;7.93;;;4.87;;
7817;SDS011;3954;52.624;9.212;2022-10-16T04:28:57;8.53;;;5.17;;
7817;SDS011;3954;52.624;9.212;2022-10-16T04:31:23;4.93;;;4.43;;
7817;SDS011;3954;52.624;9.212;2022-10-16T04:33:49;7.17;;;4.67;;
7817;SDS011;3954;52.624;9.212;2022-10-16T04:36:17;8.67;;;5.00;;
7817;SDS011;3954;52.624;9.212;2022-10-16T04:38:43;6.20;;;4.83;;
7817;SDS011;3954;52.624;9.212;2022-10-16T04:41:09;7.60;;;4.83;;
7817;SDS011;3954;52.624;9.212;2022-10-16T04:43:35;6.50;;;5.00;;
7817;SDS011;3954;52.624;9.212;2022-10-16T04:46:01;7.10;;;5.00;;
7817;SDS011;3954;52.624;9.212;2022-10-16T04:48:29;5.30;;;4.33;;
7817;SDS011;3954;52.624;9.212;2022-10-16T04:50:55;7.57;;;5.10;;
7817;SDS011;3954;52.624;9.212;2022-10-16T04:53:23;6.07;;;5.27;;
7817;SDS011;3954;52.624;9.212;2022-10-16T04:55:49;7.67;;;4.73;;
7817;SDS011;3954;52.624;9.212;2022-10-16T04:58:15;5.83;;;5.00;;
7817;SDS011;3954;52.624;9.212;2022-10-16T05:00:42;6.47;;;5.00;;
7817;SDS011;3954;52.624;9.212;2022-10-16T05:03:08;6.57;;;4.47;;
7817;SDS011;3954;52.624;9.212;2022-10-16T05:05:34;10.87;;;6.07;;
7817;SDS011;3954;52.624;9.212;2022-10-16T05:08:00;6.27;;;4.80;;
7817;SDS011;3954;52.624;9.212;2022-10-16T05:10:28;9.83;;;5.80;;
7817;SDS011;3954;52.624;9.212;2022-10-16T05:12:54;8.23;;;4.87;;
7817;SDS011;3954;52.624;9.212;2022-10-16T05:15:20;5.87;;;4.80;;
7817;SDS011;3954;52.624;9.212;2022-10-16T05:17:46;8.77;;;5.03;;
7817;SDS011;3954;52.624;9.212;2022-10-16T05:20:12;9.60;;;5.10;;
7817;SDS011;3954;52.624;9.212;2022-10-16T05:22:38;6.13;;;4.87;;
7817;SDS011;3954;52.624;9.212;2022-10-16T05:25:04;6.77;;;4.93;;
7817;SDS011;3954;52.624;9.212;2022-10-16T05:27:31;5.47;;;4.27;;
7817;SDS011;3954;52.624;9.212;2022-10-16T05:29:57;7.60;;;4.63;;
7817;SDS011;3954;52.624;9.212;2022-10-16T05:32:23;8.20;;;4.87;;
7817;SDS011;3954;52.624;9.212;2022-10-16T05:34:50;13.03;;;5.33;;
7817;SDS011;3954;52.624;9.212;2022-10-16T05:37:16;6.77;;;4.57;;
7817;SDS011;3954;52.624;9.212;2022-10-16T05:39:42;9.43;;;4.77;;
7817;SDS011;3954;52.624;9.212;2022-10-16T05:42:08;7.90;;;4.60;;
7817;SDS011;3954;52.624;9.212;2022-10-16T05:44:36;7.73;;;4.20;;
7817;SDS011;3954;52.624;9.212;2022-10-16T05:47:02;8.47;;;4.67;;
7817;SDS011;3954;52.624;9.212;2022-10-16T05:49:28;9.17;;;4.73;;
7817;SDS011;3954;52.624;9.212;2022-10-16T05:51:54;7.83;;;4.30;;
7817;SDS011;3954;52.624;9.212;2022-10-16T05:54:20;7.93;;;4.53;;
7817;SDS011;3954;52.624;9.212;2022-10-16T05:56:46;6.50;;;4.23;;
7817;SDS011;3954;52.624;9.212;2022-10-16T05:59:12;7.17;;;4.60;;
7817;SDS011;3954;52.624;9.212;2022-10-16T06:01:39;4.80;;;4.30;;
7817;SDS011;3954;52.624;9.212;2022-10-16T06:04:05;5.90;;;4.47;;
7817;SDS011;3954;52.624;9.212;2022-10-16T06:06:31;5.50;;;3.90;;
7817;SDS011;3954;52.624;9.212;2022-10-16T06:08:57;6.17;;;4.50;;
7817;SDS011;3954;52.624;9.212;2022-10-16T06:11:25;6.83;;;4.63;;
7817;SDS011;3954;52.624;9.212;2022-10-16T06:13:52;7.47;;;4.23;;
7817;SDS011;3954;52.624;9.212;2022-10-16T06:16:18;4.60;;;4.20;;
7817;SDS011;3954;52.624;9.212;2022-10-16T06:18:46;3.87;;;3.47;;
7817;SDS011;3954;52.624;9.212;2022-10-16T06:21:14;5.37;;;3.33;;
7817;SDS011;3954;52.624;9.212;2022-10-16T06:23:41;5.60;;;3.60;;
7817;SDS011;3954;52.624;9.212;2022-10-16T06:26:08;4.13;;;3.20;;
7817;SDS011;3954;52.624;9.212;2022-10-16T06:28:34;5.03;;;3.13;;
7817;SDS011;3954;52.624;9.212;2022-10-16T06:31:00;4.20;;;3.40;;
7817;SDS011;3954;52.624;9.212;2022-10-16T06:33:27;4.27;;;3.20;;
7817;SDS011;3954;52.624;9.212;2022-10-16T06:35:54;5.83;;;3.63;;
7817;SDS011;3954;52.624;9.212;2022-10-16T06:38:25;4.30;;;3.13;;
7817;SDS011;3954;52.624;9.212;2022-10-16T06:40:53;5.83;;;3.27;;
7817;SDS011;3954;52.624;9.212;2022-10-16T06:43:19;5.70;;;3.80;;
7817;SDS011;3954;52.624;9.212;2022-10-16T06:45:49;6.73;;;5.17;;
7817;SDS011;3954;52.624;9.212;2022-10-16T06:48:16;6.50;;;4.40;;
7817;SDS011;3954;52.624;9.212;2022-10-16T06:50:42;3.30;;;3.00;;
7817;SDS011;3954;52.624;9.212;2022-10-16T06:53:09;5.07;;;2.63;;
7817;SDS011;3954;52.624;9.212;2022-10-16T06:55:35;2.97;;;2.50;;
7817;SDS011;3954;52.624;9.212;2022-10-16T06:58:01;4.93;;;2.80;;
7817;SDS011;3954;52.624;9.212;2022-10-16T07:00:27;4.80;;;2.80;;
7817;SDS011;3954;52.624;9.212;2022-10-16T07:02:53;2.90;;;2.37;;
7817;SDS011;3954;52.624;9.212;2022-10-16T07:05:19;5.07;;;2.90;;
7817;SDS011;3954;52.624;9.212;2022-10-16T07:07:45;3.03;;;2.50;;
7817;SDS011;3954;52.624;9.212;2022-10-16T07:10:12;2.83;;;2.13;;
7817;SDS011;3954;52.624;9.212;2022-10-16T07:12:38;3.77;;;2.13;;
7817;SDS011;3954;52.624;9.212;2022-10-16T07:15:05;2.60;;;2.07;;
7817;SDS011;3954;52.624;9.212;2022-10-16T07:17:32;2.57;;;2.10;;
7817;SDS011;3954;52.624;9.212;2022-10-16T07:19:58;3.77;;;2.27;;
7817;SDS011;3954;52.624;9.212;2022-10-16T07:22:24;2.03;;;1.83;;
7817;SDS011;3954;52.624;9.212;2022-10-16T07:24:50;4.17;;;2.40;;
7817;SDS011;3954;52.624;9.212;2022-10-16T07:27:18;3.40;;;2.30;;
7817;SDS011;3954;52.624;9.212;2022-10-16T07:29:47;4.13;;;2.30;;
7817;SDS011;3954;52.624;9.212;2022-10-16T07:32:13;2.10;;;1.90;;
7817;SDS011;3954;52.624;9.212;2022-10-16T07:34:39;2.70;;;1.87;;
7817;SDS011;3954;52.624;9.212;2022-10-16T07:37:05;2.60;;;1.90;;
7817;SDS011;3954;52.624;9.212;2022-10-16T07:39:31;4.07;;;2.13;;
7817;SDS011;3954;52.624;9.212;2022-10-16T07:41:57;3.83;;;2.07;;
7817;SDS011;3954;52.624;9.212;2022-10-16T07:44:25;2.50;;;1.87;;
7817;SDS011;3954;52.624;9.212;2022-10-16T07:46:51;1.80;;;1.70;;
7817;SDS011;3954;52.624;9.212;2022-10-16T07:49:17;2.10;;;1.87;;
7817;SDS011;3954;52.624;9.212;2022-10-16T07:51:43;1.80;;;1.70;;
7817;SDS011;3954;52.624;9.212;2022-10-16T07:54:09;3.03;;;2.67;;
7817;SDS011;3954;52.624;9.212;2022-10-16T07:56:35;2.43;;;1.90;;
7817;SDS011;3954;52.624;9.212;2022-10-16T07:59:01;2.60;;;1.90;;
7817;SDS011;3954;52.624;9.212;2022-10-16T08:01:28;2.60;;;1.67;;
7817;SDS011;3954;52.624;9.212;2022-10-16T08:03:55;4.20;;;1.90;;
7817;SDS011;3954;52.624;9.212;2022-10-16T08:06:21;1.90;;;1.53;;
7817;SDS011;3954;52.624;9.212;2022-10-16T08:08:47;2.73;;;1.60;;
7817;SDS011;3954;52.624;9.212;2022-10-16T08:11:13;2.60;;;1.63;;
7817;SDS011;3954;52.624;9.212;2022-10-16T08:13:40;2.33;;;1.77;;
7817;SDS011;3954;52.624;9.212;2022-10-16T08:16:06;1.70;;;1.60;;
7817;SDS011;3954;52.624;9.212;2022-10-16T08:18:34;1.50;;;1.40;;
7817;SDS011;3954;52.624;9.212;2022-10-16T08:21:01;1.33;;;1.23;;
7817;SDS011;3954;52.624;9.212;2022-10-16T08:23:27;1.60;;;1.50;;
7817;SDS011;3954;52.624;9.212;2022-10-16T08:25:53;2.33;;;1.70;;
7817;SDS011;3954;52.624;9.212;2022-10-16T08:28:19;2.17;;;1.43;;
7817;SDS011;3954;52.624;9.212;2022-10-16T08:30:45;2.57;;;1.50;;
7817;SDS011;3954;52.624;9.212;2022-10-16T08:33:11;1.57;;;1.40;;
7817;SDS011;3954;52.624;9.212;2022-10-16T08:35:39;2.23;;;1.30;;
7817;SDS011;3954;52.624;9.212;2022-10-16T08:38:05;1.63;;;1.23;;
7817;SDS011;3954;52.624;9.212;2022-10-16T08:40:31;1.47;;;1.33;;
7817;SDS011;3954;52.624;9.212;2022-10-16T08:43:04;1.50;;;1.30;;
7817;SDS011;3954;52.624;9.212;2022-10-16T08:45:38;2.43;;;1.30;;
7817;SDS011;3954;52.624;9.212;2022-10-16T08:48:15;3.93;;;1.47;;
7817;SDS011;3954;52.624;9.212;2022-10-16T08:50:48;2.23;;;1.50;;
7817;SDS011;3954;52.624;9.212;2022-10-16T08:53:15;4.50;;;1.30;;
7817;SDS011;3954;52.624;9.212;2022-10-16T08:55:43;2.87;;;2.17;;
7817;SDS011;3954;52.624;9.212;2022-10-16T08:58:12;2.03;;;1.37;;
7817;SDS011;3954;52.624;9.212;2022-10-16T09:00:39;3.33;;;1.33;;
7817;SDS011;3954;52.624;9.212;2022-10-16T09:03:07;4.20;;;1.23;;
7817;SDS011;3954;52.624;9.212;2022-10-16T09:05:41;1.80;;;1.40;;
7817;SDS011;3954;52.624;9.212;2022-10-16T09:08:12;2.50;;;1.50;;
7817;SDS011;3954;52.624;9.212;2022-10-16T09:10:43;2.27;;;1.30;;
7817;SDS011;3954;52.624;9.212;2022-10-16T09:13:16;2.03;;;1.40;;
7817;SDS011;3954;52.624;9.212;2022-10-16T09:15:44;1.83;;;1.30;;
7817;SDS011;3954;52.624;9.212;2022-10-16T09:18:15;3.77;;;1.40;;
7817;SDS011;3954;52.624;9.212;2022-10-16T09:20:45;2.77;;;1.33;;
7817;SDS011;3954;52.624;9.212;2022-10-16T09:23:16;3.30;;;1.20;;
7817;SDS011;3954;52.624;9.212;2022-10-16T09:25:43;2.80;;;1.30;;
7817;SDS011;3954;52.624;9.212;2022-10-16T09:28:09;1.17;;;1.07;;
7817;SDS011;3954;52.624;9.212;2022-10-16T09:30:36;1.70;;;1.20;;
7817;SDS011;3954;52.624;9.212;2022-10-16T09:33:04;3.20;;;1.30;;
7817;SDS011;3954;52.624;9.212;2022-10-16T09:35:31;2.87;;;1.37;;
7817;SDS011;3954;52.624;9.212;2022-10-16T09:37:59;2.30;;;1.40;;
7817;SDS011;3954;52.624;9.212;2022-10-16T09:40:28;4.17;;;1.40;;
7817;SDS011;3954;52.624;9.212;2022-10-16T09:42:56;2.43;;;1.00;;
7817;SDS011;3954;52.624;9.212;2022-10-16T09:45:23;1.50;;;1.40;;
7817;SDS011;3954;52.624;9.212;2022-10-16T09:47:50;2.83;;;1.47;;
7817;SDS011;3954;52.624;9.212;2022-10-16T09:50:20;3.93;;;1.50;;
7817;SDS011;3954;52.624;9.212;2022-10-16T09:52:47;2.70;;;1.30;;
7817;SDS011;3954;52.624;9.212;2022-10-16T09:55:14;4.40;;;1.60;;
7817;SDS011;3954;52.624;9.212;2022-10-16T09:57:49;3.43;;;1.90;;
7817;SDS011;3954;52.624;9.212;2022-10-16T10:00:15;2.90;;;1.60;;
7817;SDS011;3954;52.624;9.212;2022-10-16T10:02:41;5.13;;;1.60;;
7817;SDS011;3954;52.624;9.212;2022-10-16T10:05:17;3.03;;;1.70;;
7817;SDS011;3954;52.624;9.212;2022-10-16T10:07:44;3.10;;;1.80;;
7817;SDS011;3954;52.624;9.212;2022-10-16T10:10:18;2.90;;;1.40;;
7817;SDS011;3954;52.624;9.212;2022-10-16T10:12:45;2.13;;;1.53;;
7817;SDS011;3954;52.624;9.212;2022-10-16T10:15:13;2.93;;;1.20;;
7817;SDS011;3954;52.624;9.212;2022-10-16T10:17:46;2.80;;;1.50;;
7817;SDS011;3954;52.624;9.212;2022-10-16T10:20:15;4.30;;;1.67;;
7817;SDS011;3954;52.624;9.212;2022-10-16T10:22:44;6.03;;;1.60;;
7817;SDS011;3954;52.624;9.212;2022-10-16T10:28:09;1.83;;;1.07;;
7817;SDS011;3954;52.624;9.212;2022-10-16T10:30:42;3.37;;;1.50;;
7817;SDS011;3954;52.624;9.212;2022-10-16T10:33:13;4.73;;;1.57;;
7817;SDS011;3954;52.624;9.212;2022-10-16T10:35:42;5.40;;;1.70;;
7817;SDS011;3954;52.624;9.212;2022-10-16T10:38:16;2.37;;;1.50;;
7817;SDS011;3954;52.624;9.212;2022-10-16T10:40:45;4.10;;;1.60;;
7817;SDS011;3954;52.624;9.212;2022-10-16T10:43:17;1.97;;;1.50;;
7817;SDS011;3954;52.624;9.212;2022-10-16T10:45:48;4.33;;;1.27;;
7817;SDS011;3954;52.624;9.212;2022-10-16T10:48:21;2.07;;;1.40;;
7817;SDS011;3954;52.624;9.212;2022-10-16T10:50:49;3.90;;;1.73;;
7817;SDS011;3954;52.624;9.212;2022-10-16T10:53:21;3.13;;;1.40;;
7817;SDS011;3954;52.624;9.212;2022-10-16T10:55:51;2.23;;;1.30;;
7817;SDS011;3954;52.624;9.212;2022-10-16T10:58:35;3.03;;;1.53;;
7817;SDS011;3954;52.624;9.212;2022-10-16T11:01:08;2.50;;;1.30;;
7817;SDS011;3954;52.624;9.212;2022-10-16T11:03:41;3.00;;;1.20;;
7817;SDS011;3954;52.624;9.212;2022-10-16T11:06:08;3.47;;;1.53;;
7817;SDS011;3954;52.624;9.212;2022-10-16T11:08:37;2.33;;;1.50;;
7817;SDS011;3954;52.624;9.212;2022-10-16T11:11:06;3.73;;;1.30;;
7817;SDS011;3954;52.624;9.212;2022-10-16T11:13:35;2.80;;;1.37;;
7817;SDS011;3954;52.624;9.212;2022-10-16T11:16:06;2.50;;;1.30;;
7817;SDS011;3954;52.624;9.212;2022-10-16T11:18:40;3.80;;;1.37;;
7817;SDS011;3954;52.624;9.212;2022-10-16T11:21:09;2.70;;;1.37;;
7817;SDS011;3954;52.624;9.212;2022-10-16T11:23:37;2.53;;;1.33;;
7817;SDS011;3954;52.624;9.212;2022-10-16T11:26:06;3.93;;;1.30;;
7817;SDS011;3954;52.624;9.212;2022-10-16T11:28:37;4.40;;;1.30;;
7817;SDS011;3954;52.624;9.212;2022-10-16T11:31:05;1.20;;;1.10;;
7817;SDS011;3954;52.624;9.212;2022-10-16T11:33:36;2.53;;;1.13;;
7817;SDS011;3954;52.624;9.212;2022-10-16T11:36:07;3.50;;;1.20;;
7817;SDS011;3954;52.624;9.212;2022-10-16T11:38:35;3.90;;;1.53;;
7817;SDS011;3954;52.624;9.212;2022-10-16T11:41:03;2.70;;;1.50;;
7817;SDS011;3954;52.624;9.212;2022-10-16T11:43:35;3.03;;;1.10;;
7817;SDS011;3954;52.624;9.212;2022-10-16T11:46:04;3.50;;;1.20;;
7817;SDS011;3954;52.624;9.212;2022-10-16T11:48:35;2.70;;;1.20;;
7817;SDS011;3954;52.624;9.212;2022-10-16T11:53:49;2.77;;;1.70;;
7817;SDS011;3954;52.624;9.212;2022-10-16T11:56:17;4.73;;;1.60;;
7817;SDS011;3954;52.624;9.212;2022-10-16T11:58:46;3.07;;;1.37;;
7817;SDS011;3954;52.624;9.212;2022-10-16T12:01:16;3.97;;;1.10;;
7817;SDS011;3954;52.624;9.212;2022-10-16T12:03:44;2.87;;;1.53;;
7817;SDS011;3954;52.624;9.212;2022-10-16T12:06:25;2.57;;;1.30;;
7817;SDS011;3954;52.624;9.212;2022-10-16T12:08:55;5.30;;;1.50;;
7817;SDS011;3954;52.624;9.212;2022-10-16T12:11:30;4.17;;;1.53;;
7817;SDS011;3954;52.624;9.212;2022-10-16T12:14:03;2.03;;;1.23;;
7817;SDS011;3954;52.624;9.212;2022-10-16T12:16:30;3.43;;;1.37;;
7817;SDS011;3954;52.624;9.212;2022-10-16T12:19:10;3.03;;;1.20;;
7817;SDS011;3954;52.624;9.212;2022-10-16T12:21:36;4.53;;;1.57;;
7817;SDS011;3954;52.624;9.212;2022-10-16T12:24:04;4.30;;;1.33;;
7817;SDS011;3954;52.624;9.212;2022-10-16T12:26:31;1.90;;;0.93;;
7817;SDS011;3954;52.624;9.212;2022-10-16T12:29:09;4.03;;;1.00;;
7817;SDS011;3954;52.624;9.212;2022-10-16T12:31:36;2.20;;;1.20;;
7817;SDS011;3954;52.624;9.212;2022-10-16T12:34:03;1.43;;;1.00;;
7817;SDS011;3954;52.624;9.212;2022-10-16T12:36:30;3.53;;;1.30;;
7817;SDS011;3954;52.624;9.212;2022-10-16T12:38:56;2.33;;;1.17;;
7817;SDS011;3954;52.624;9.212;2022-10-16T12:41:26;4.37;;;1.60;;
7817;SDS011;3954;52.624;9.212;2022-10-16T12:43:52;2.30;;;1.13;;
7817;SDS011;3954;52.624;9.212;2022-10-16T12:46:21;1.93;;;0.93;;
7817;SDS011;3954;52.624;9.212;2022-10-16T12:48:48;3.13;;;1.20;;
7817;SDS011;3954;52.624;9.212;2022-10-16T12:51:23;1.70;;;1.20;;
7817;SDS011;3954;52.624;9.212;2022-10-16T12:53:57;2.03;;;1.00;;
7817;SDS011;3954;52.624;9.212;2022-10-16T12:56:26;3.13;;;1.23;;
7817;SDS011;3954;52.624;9.212;2022-10-16T12:59:00;1.90;;;1.20;;
7817;SDS011;3954;52.624;9.212;2022-10-16T13:01:32;4.73;;;2.40;;
7817;SDS011;3954;52.624;9.212;2022-10-16T13:04:10;3.23;;;1.20;;
7817;SDS011;3954;52.624;9.212;2022-10-16T13:06:42;2.33;;;1.10;;
7817;SDS011;3954;52.624;9.212;2022-10-16T13:09:15;5.00;;;1.27;;
7817;SDS011;3954;52.624;9.212;2022-10-16T13:11:51;1.50;;;1.00;;
7817;SDS011;3954;52.624;9.212;2022-10-16T13:14:22;2.50;;;1.10;;
7817;SDS011;3954;52.624;9.212;2022-10-16T13:16:53;1.13;;;1.00;;
7817;SDS011;3954;52.624;9.212;2022-10-16T13:19:23;2.43;;;1.00;;
7817;SDS011;3954;52.624;9.212;2022-10-16T13:21:54;3.13;;;1.50;;
7817;SDS011;3954;52.624;9.212;2022-10-16T13:24:25;2.63;;;0.90;;
7817;SDS011;3954;52.624;9.212;2022-10-16T13:26:56;2.17;;;1.70;;
7817;SDS011;3954;52.624;9.212;2022-10-16T13:29:23;2.63;;;1.90;;
7817;SDS011;3954;52.624;9.212;2022-10-16T13:31:49;1.43;;;1.07;;
7817;SDS011;3954;52.624;9.212;2022-10-16T13:34:17;3.20;;;1.23;;
7817;SDS011;3954;52.624;9.212;2022-10-16T13:36:44;1.10;;;1.00;;
7817;SDS011;3954;52.624;9.212;2022-10-16T13:39:12;4.43;;;1.13;;
7817;SDS011;3954;52.624;9.212;2022-10-16T13:41:38;2.57;;;1.23;;
7817;SDS011;3954;52.624;9.212;2022-10-16T13:44:07;2.63;;;1.37;;
7817;SDS011;3954;52.624;9.212;2022-10-16T13:46:37;3.53;;;1.20;;
7817;SDS011;3954;52.624;9.212;2022-10-16T13:49:04;1.77;;;1.03;;
7817;SDS011;3954;52.624;9.212;2022-10-16T13:51:32;3.37;;;1.30;;
7817;SDS011;3954;52.624;9.212;2022-10-16T13:53:58;4.73;;;1.30;;
7817;SDS011;3954;52.624;9.212;2022-10-16T13:56:25;2.20;;;1.07;;
7817;SDS011;3954;52.624;9.212;2022-10-16T14:01:48;2.47;;;1.43;;
7817;SDS011;3954;52.624;9.212;2022-10-16T14:04:15;2.20;;;1.20;;
7817;SDS011;3954;52.624;9.212;2022-10-16T14:06:42;3.10;;;1.53;;
7817;SDS011;3954;52.624;9.212;2022-10-16T14:09:08;3.27;;;1.23;;
7817;SDS011;3954;52.624;9.212;2022-10-16T14:11:42;3.47;;;1.27;;
7817;SDS011;3954;52.624;9.212;2022-10-16T14:14:09;2.17;;;0.93;;
7817;SDS011;3954;52.624;9.212;2022-10-16T14:16:36;5.40;;;1.50;;
7817;SDS011;3954;52.624;9.212;2022-10-16T14:19:14;2.73;;;1.10;;
7817;SDS011;3954;52.624;9.212;2022-10-16T14:21:42;2.60;;;1.43;;
7817;SDS011;3954;52.624;9.212;2022-10-16T14:24:11;3.03;;;1.57;;
7817;SDS011;3954;52.624;9.212;2022-10-16T14:26:41;2.90;;;1.80;;
7817;SDS011;3954;52.624;9.212;2022-10-16T14:29:10;1.80;;;1.30;;
7817;SDS011;3954;52.624;9.212;2022-10-16T14:31:37;2.83;;;1.60;;
7817;SDS011;3954;52.624;9.212;2022-10-16T14:34:04;2.43;;;1.30;;
7817;SDS011;3954;52.624;9.212;2022-10-16T14:36:33;2.67;;;1.60;;
7817;SDS011;3954;52.624;9.212;2022-10-16T14:39:00;2.07;;;1.30;;
7817;SDS011;3954;52.624;9.212;2022-10-16T14:41:27;3.63;;;1.40;;
7817;SDS011;3954;52.624;9.212;2022-10-16T14:43:54;4.30;;;1.57;;
7817;SDS011;3954;52.624;9.212;2022-10-16T14:46:21;3.40;;;1.47;;
7817;SDS011;3954;52.624;9.212;2022-10-16T14:48:51;3.87;;;1.20;;
7817;SDS011;3954;52.624;9.212;2022-10-16T14:51:18;3.93;;;1.50;;
7817;SDS011;3954;52.624;9.212;2022-10-16T14:53:46;4.07;;;1.60;;
7817;SDS011;3954;52.624;9.212;2022-10-16T14:56:14;2.40;;;1.50;;
7817;SDS011;3954;52.624;9.212;2022-10-16T14:58:41;2.77;;;1.50;;
7817;SDS011;3954;52.624;9.212;2022-10-16T15:01:07;1.67;;;1.30;;
7817;SDS011;3954;52.624;9.212;2022-10-16T15:03:35;3.17;;;1.57;;
7817;SDS011;3954;52.624;9.212;2022-10-16T15:06:01;2.00;;;1.30;;
7817;SDS011;3954;52.624;9.212;2022-10-16T15:08:27;3.03;;;1.30;;
7817;SDS011;3954;52.624;9.212;2022-10-16T15:10:55;2.60;;;1.47;;
7817;SDS011;3954;52.624;9.212;2022-10-16T15:13:21;2.10;;;1.50;;
7817;SDS011;3954;52.624;9.212;2022-10-16T15:15:47;3.53;;;1.50;;
7817;SDS011;3954;52.624;9.212;2022-10-16T15:18:16;2.60;;;1.70;;
7817;SDS011;3954;52.624;9.212;2022-10-16T15:20:47;3.57;;;1.70;;
7817;SDS011;3954;52.624;9.212;2022-10-16T15:23:13;2.20;;;1.53;;
7817;SDS011;3954;52.624;9.212;2022-10-16T15:25:41;3.93;;;1.70;;
7817;SDS011;3954;52.624;9.212;2022-10-16T15:28:09;2.87;;;1.50;;